sensor_id;sensor_type;location;lat;lon;timestamp;P1;durP1;ratioP1;P2;durP2;ratioP2
23702;SDS011;12030;50.376;8.762;2023-07-29T00:01:01;7.77;;;4.57;;
23702;SDS011;12030;50.376;8.762;2023-07-29T00:03:27;5.27;;;4.30;;
23702;SDS011;12030;50.376;8.762;2023-07-29T00:05:54;5.80;;;4.43;;
23702;SDS011;12030;50.376;8.762;2023-07-29T00:08:20;4.87;;;4.40;;
23702;SDS011;12030;50.376;8.762;2023-07-29T00:10:46;4.43;;;3.90;;
23702;SDS011;12030;50.376;8.762;2023-07-29T00:13:12;4.83;;;4.43;;
23702;SDS011;12030;50.376;8.762;2023-07-29T00:15:37;5.40;;;4.40;;
23702;SDS011;12030;50.376;8.762;2023-07-29T00:18:03;5.13;;;4.73;;
23702;SDS011;12030;50.376;8.762;2023-07-29T00:20:28;5.20;;;4.40;;
23702;SDS011;12030;50.376;8.762;2023-07-29T00:22:54;5.50;;;4.90;;
23702;SDS011;12030;50.376;8.762;2023-07-29T00:25:20;5.73;;;5.23;;
23702;SDS011;12030;50.376;8.762;2023-07-29T00:27:46;4.97;;;4.57;;
23702;SDS011;12030;50.376;8.762;2023-07-29T00:30:12;5.33;;;4.83;;
23702;SDS011;12030;50.376;8.762;2023-07-29T00:32:37;5.27;;;4.70;;
23702;SDS011;12030;50.376;8.762;2023-07-29T00:35:03;4.70;;;4.30;;
23702;SDS011;12030;50.376;8.762;2023-07-29T00:37:29;4.47;;;4.13;;
23702;SDS011;12030;50.376;8.762;2023-07-29T00:39:55;4.70;;;4.30;;
23702;SDS011;12030;50.376;8.762;2023-07-29T00:42:21;5.40;;;5.00;;
23702;SDS011;12030;50.376;8.762;2023-07-29T00:44:46;5.70;;;5.20;;
23702;SDS011;12030;50.376;8.762;2023-07-29T00:47:12;6.17;;;5.67;;
23702;SDS011;12030;50.376;8.762;2023-07-29T00:49:40;7.87;;;5.33;;
23702;SDS011;12030;50.376;8.762;2023-07-29T00:52:06;6.87;;;6.27;;
23702;SDS011;12030;50.376;8.762;2023-07-29T00:54:32;6.57;;;5.97;;
23702;SDS011;12030;50.376;8.762;2023-07-29T00:56:57;8.07;;;7.17;;
23702;SDS011;12030;50.376;8.762;2023-07-29T00:59:23;8.03;;;7.23;;
23702;SDS011;12030;50.376;8.762;2023-07-29T01:01:49;7.77;;;7.10;;
23702;SDS011;12030;50.376;8.762;2023-07-29T01:04:14;9.00;;;7.93;;
23702;SDS011;12030;50.376;8.762;2023-07-29T01:06:50;8.90;;;8.00;;
23702;SDS011;12030;50.376;8.762;2023-07-29T01:09:35;9.57;;;7.90;;
23702;SDS011;12030;50.376;8.762;2023-07-29T01:12:27;9.07;;;8.37;;
23702;SDS011;12030;50.376;8.762;2023-07-29T01:15:11;9.80;;;8.87;;
23702;SDS011;12030;50.376;8.762;2023-07-29T01:17:46;9.30;;;8.40;;
23702;SDS011;12030;50.376;8.762;2023-07-29T01:20:17;10.33;;;9.43;;
23702;SDS011;12030;50.376;8.762;2023-07-29T01:22:45;10.57;;;9.70;;
23702;SDS011;12030;50.376;8.762;2023-07-29T01:25:12;10.77;;;9.77;;
23702;SDS011;12030;50.376;8.762;2023-07-29T01:27:38;11.97;;;10.80;;
23702;SDS011;12030;50.376;8.762;2023-07-29T01:30:06;13.83;;;12.60;;
23702;SDS011;12030;50.376;8.762;2023-07-29T01:35:09;14.80;;;13.40;;
23702;SDS011;12030;50.376;8.762;2023-07-29T01:37:56;15.63;;;14.03;;
23702;SDS011;12030;50.376;8.762;2023-07-29T01:40:27;15.33;;;13.73;;
23702;SDS011;12030;50.376;8.762;2023-07-29T01:42:53;15.43;;;13.63;;
23702;SDS011;12030;50.376;8.762;2023-07-29T01:45:22;14.37;;;12.93;;
23702;SDS011;12030;50.376;8.762;2023-07-29T01:47:49;14.73;;;13.27;;
23702;SDS011;12030;50.376;8.762;2023-07-29T01:50:15;14.10;;;12.90;;
23702;SDS011;12030;50.376;8.762;2023-07-29T01:52:40;13.67;;;12.37;;
23702;SDS011;12030;50.376;8.762;2023-07-29T01:55:06;14.17;;;12.90;;
23702;SDS011;12030;50.376;8.762;2023-07-29T01:57:31;14.30;;;13.00;;
23702;SDS011;12030;50.376;8.762;2023-07-29T01:59:57;13.80;;;12.63;;
23702;SDS011;12030;50.376;8.762;2023-07-29T02:02:22;13.60;;;12.30;;
23702;SDS011;12030;50.376;8.762;2023-07-29T02:04:48;12.97;;;11.87;;
23702;SDS011;12030;50.376;8.762;2023-07-29T02:07:16;13.77;;;12.47;;
23702;SDS011;12030;50.376;8.762;2023-07-29T02:09:43;14.50;;;12.97;;
23702;SDS011;12030;50.376;8.762;2023-07-29T02:12:08;13.90;;;12.60;;
23702;SDS011;12030;50.376;8.762;2023-07-29T02:14:34;14.43;;;13.13;;
23702;SDS011;12030;50.376;8.762;2023-07-29T02:16:59;13.90;;;12.70;;
23702;SDS011;12030;50.376;8.762;2023-07-29T02:19:25;14.23;;;12.97;;
23702;SDS011;12030;50.376;8.762;2023-07-29T02:21:50;14.83;;;13.47;;
23702;SDS011;12030;50.376;8.762;2023-07-29T02:24:16;14.37;;;12.97;;
23702;SDS011;12030;50.376;8.762;2023-07-29T02:26:42;13.03;;;11.73;;
23702;SDS011;12030;50.376;8.762;2023-07-29T02:29:07;15.10;;;13.50;;
23702;SDS011;12030;50.376;8.762;2023-07-29T02:31:33;14.60;;;13.20;;
23702;SDS011;12030;50.376;8.762;2023-07-29T02:33:59;16.17;;;14.60;;
23702;SDS011;12030;50.376;8.762;2023-07-29T02:36:25;16.70;;;15.10;;
23702;SDS011;12030;50.376;8.762;2023-07-29T02:38:50;17.50;;;15.70;;
23702;SDS011;12030;50.376;8.762;2023-07-29T02:41:16;16.93;;;15.40;;
23702;SDS011;12030;50.376;8.762;2023-07-29T02:43:42;15.83;;;14.33;;
23702;SDS011;12030;50.376;8.762;2023-07-29T02:46:08;16.07;;;14.47;;
23702;SDS011;12030;50.376;8.762;2023-07-29T02:48:34;14.97;;;13.57;;
23702;SDS011;12030;50.376;8.762;2023-07-29T02:50:59;15.23;;;13.77;;
23702;SDS011;12030;50.376;8.762;2023-07-29T02:53:25;15.17;;;13.77;;
23702;SDS011;12030;50.376;8.762;2023-07-29T02:55:50;16.17;;;14.47;;
23702;SDS011;12030;50.376;8.762;2023-07-29T02:58:16;16.53;;;15.03;;
23702;SDS011;12030;50.376;8.762;2023-07-29T03:00:41;17.07;;;15.47;;
23702;SDS011;12030;50.376;8.762;2023-07-29T03:03:08;17.40;;;15.90;;
23702;SDS011;12030;50.376;8.762;2023-07-29T03:05:34;17.83;;;15.97;;
23702;SDS011;12030;50.376;8.762;2023-07-29T03:07:59;16.97;;;15.37;;
23702;SDS011;12030;50.376;8.762;2023-07-29T03:10:25;17.60;;;15.80;;
23702;SDS011;12030;50.376;8.762;2023-07-29T03:12:52;16.87;;;15.27;;
23702;SDS011;12030;50.376;8.762;2023-07-29T03:15:22;15.73;;;14.13;;
23702;SDS011;12030;50.376;8.762;2023-07-29T03:17:50;15.23;;;13.83;;
23702;SDS011;12030;50.376;8.762;2023-07-29T03:20:15;16.33;;;14.67;;
23702;SDS011;12030;50.376;8.762;2023-07-29T03:22:42;14.63;;;13.30;;
23702;SDS011;12030;50.376;8.762;2023-07-29T03:25:08;13.27;;;12.10;;
23702;SDS011;12030;50.376;8.762;2023-07-29T03:27:34;12.10;;;10.87;;
23702;SDS011;12030;50.376;8.762;2023-07-29T03:30:01;11.73;;;10.73;;
23702;SDS011;12030;50.376;8.762;2023-07-29T03:32:30;10.20;;;9.30;;
23702;SDS011;12030;50.376;8.762;2023-07-29T03:34:56;9.10;;;8.13;;
23702;SDS011;12030;50.376;8.762;2023-07-29T03:37:21;8.47;;;7.67;;
23702;SDS011;12030;50.376;8.762;2023-07-29T03:39:47;6.87;;;6.27;;
23702;SDS011;12030;50.376;8.762;2023-07-29T03:42:13;8.33;;;5.87;;
23702;SDS011;12030;50.376;8.762;2023-07-29T03:44:38;6.73;;;5.07;;
23702;SDS011;12030;50.376;8.762;2023-07-29T03:47:04;5.50;;;5.00;;
23702;SDS011;12030;50.376;8.762;2023-07-29T03:49:31;6.93;;;4.87;;
23702;SDS011;12030;50.376;8.762;2023-07-29T03:51:56;5.30;;;4.90;;
23702;SDS011;12030;50.376;8.762;2023-07-29T03:54:22;5.10;;;4.60;;
23702;SDS011;12030;50.376;8.762;2023-07-29T03:56:47;5.40;;;4.90;;
23702;SDS011;12030;50.376;8.762;2023-07-29T03:59:13;5.53;;;4.53;;
23702;SDS011;12030;50.376;8.762;2023-07-29T04:01:39;5.67;;;5.17;;
23702;SDS011;12030;50.376;8.762;2023-07-29T04:04:04;6.50;;;5.20;;
23702;SDS011;12030;50.376;8.762;2023-07-29T04:06:30;9.10;;;6.20;;
23702;SDS011;12030;50.376;8.762;2023-07-29T04:08:56;7.00;;;6.23;;
23702;SDS011;12030;50.376;8.762;2023-07-29T04:11:22;7.37;;;6.00;;
23702;SDS011;12030;50.376;8.762;2023-07-29T04:13:48;6.33;;;5.73;;
23702;SDS011;12030;50.376;8.762;2023-07-29T04:16:13;8.63;;;6.30;;
23702;SDS011;12030;50.376;8.762;2023-07-29T04:18:39;6.60;;;6.00;;
23702;SDS011;12030;50.376;8.762;2023-07-29T04:21:05;8.40;;;5.77;;
23702;SDS011;12030;50.376;8.762;2023-07-29T04:23:30;6.60;;;6.00;;
23702;SDS011;12030;50.376;8.762;2023-07-29T04:25:56;6.07;;;5.47;;
23702;SDS011;12030;50.376;8.762;2023-07-29T04:28:21;6.30;;;5.43;;
23702;SDS011;12030;50.376;8.762;2023-07-29T04:30:47;5.77;;;5.27;;
23702;SDS011;12030;50.376;8.762;2023-07-29T04:33:12;5.90;;;5.40;;
23702;SDS011;12030;50.376;8.762;2023-07-29T04:35:38;5.93;;;5.33;;
23702;SDS011;12030;50.376;8.762;2023-07-29T04:38:03;5.70;;;5.20;;
23702;SDS011;12030;50.376;8.762;2023-07-29T04:40:29;5.67;;;5.17;;
23702;SDS011;12030;50.376;8.762;2023-07-29T04:42:57;6.83;;;5.73;;
23702;SDS011;12030;50.376;8.762;2023-07-29T04:45:27;6.37;;;5.43;;
23702;SDS011;12030;50.376;8.762;2023-07-29T04:47:54;9.93;;;6.13;;
23702;SDS011;12030;50.376;8.762;2023-07-29T04:50:20;6.20;;;5.70;;
23702;SDS011;12030;50.376;8.762;2023-07-29T04:52:45;7.47;;;6.77;;
23702;SDS011;12030;50.376;8.762;2023-07-29T04:55:11;8.07;;;6.83;;
23702;SDS011;12030;50.376;8.762;2023-07-29T04:57:36;7.67;;;6.30;;
23702;SDS011;12030;50.376;8.762;2023-07-29T05:00:02;7.37;;;6.67;;
23702;SDS011;12030;50.376;8.762;2023-07-29T05:02:28;7.23;;;6.53;;
23702;SDS011;12030;50.376;8.762;2023-07-29T05:04:54;7.40;;;6.80;;
23702;SDS011;12030;50.376;8.762;2023-07-29T05:07:19;9.17;;;7.17;;
23702;SDS011;12030;50.376;8.762;2023-07-29T05:09:46;8.20;;;7.50;;
23702;SDS011;12030;50.376;8.762;2023-07-29T05:12:13;9.33;;;6.90;;
23702;SDS011;12030;50.376;8.762;2023-07-29T05:14:38;8.50;;;7.70;;
23702;SDS011;12030;50.376;8.762;2023-07-29T05:17:04;9.53;;;8.63;;
23702;SDS011;12030;50.376;8.762;2023-07-29T05:19:30;10.23;;;9.23;;
23702;SDS011;12030;50.376;8.762;2023-07-29T05:21:55;10.00;;;9.10;;
23702;SDS011;12030;50.376;8.762;2023-07-29T05:24:22;10.77;;;9.77;;
23702;SDS011;12030;50.376;8.762;2023-07-29T05:26:48;10.57;;;9.67;;
23702;SDS011;12030;50.376;8.762;2023-07-29T05:29:14;11.07;;;9.93;;
23702;SDS011;12030;50.376;8.762;2023-07-29T05:31:39;10.50;;;9.57;;
23702;SDS011;12030;50.376;8.762;2023-07-29T05:34:05;11.03;;;9.87;;
23702;SDS011;12030;50.376;8.762;2023-07-29T05:36:30;9.83;;;8.93;;
23702;SDS011;12030;50.376;8.762;2023-07-29T05:38:56;10.70;;;9.70;;
23702;SDS011;12030;50.376;8.762;2023-07-29T05:41:21;10.90;;;9.43;;
23702;SDS011;12030;50.376;8.762;2023-07-29T05:43:47;9.60;;;8.57;;
23702;SDS011;12030;50.376;8.762;2023-07-29T05:46:12;9.70;;;8.90;;
23702;SDS011;12030;50.376;8.762;2023-07-29T05:48:38;9.53;;;7.97;;
23702;SDS011;12030;50.376;8.762;2023-07-29T05:51:04;8.73;;;7.93;;
23702;SDS011;12030;50.376;8.762;2023-07-29T05:53:32;8.80;;;8.03;;
23702;SDS011;12030;50.376;8.762;2023-07-29T05:55:58;8.23;;;7.37;;
23702;SDS011;12030;50.376;8.762;2023-07-29T05:58:23;8.90;;;8.13;;
23702;SDS011;12030;50.376;8.762;2023-07-29T06:00:48;7.60;;;6.90;;
23702;SDS011;12030;50.376;8.762;2023-07-29T06:03:14;8.00;;;7.30;;
23702;SDS011;12030;50.376;8.762;2023-07-29T06:05:40;8.23;;;7.43;;
23702;SDS011;12030;50.376;8.762;2023-07-29T06:08:05;7.20;;;6.60;;
23702;SDS011;12030;50.376;8.762;2023-07-29T06:10:32;8.00;;;7.30;;
23702;SDS011;12030;50.376;8.762;2023-07-29T06:12:57;7.87;;;7.27;;
23702;SDS011;12030;50.376;8.762;2023-07-29T06:15:23;8.30;;;7.60;;
23702;SDS011;12030;50.376;8.762;2023-07-29T06:17:48;8.60;;;7.77;;
23702;SDS011;12030;50.376;8.762;2023-07-29T06:20:14;7.40;;;6.73;;
23702;SDS011;12030;50.376;8.762;2023-07-29T06:22:40;8.13;;;7.43;;
23702;SDS011;12030;50.376;8.762;2023-07-29T06:25:07;8.90;;;7.60;;
23702;SDS011;12030;50.376;8.762;2023-07-29T06:27:33;9.37;;;8.47;;
23702;SDS011;12030;50.376;8.762;2023-07-29T06:29:58;8.57;;;7.83;;
23702;SDS011;12030;50.376;8.762;2023-07-29T06:32:24;8.63;;;7.93;;
23702;SDS011;12030;50.376;8.762;2023-07-29T06:34:49;9.47;;;8.57;;
23702;SDS011;12030;50.376;8.762;2023-07-29T06:37:16;11.27;;;8.97;;
23702;SDS011;12030;50.376;8.762;2023-07-29T06:39:42;10.30;;;9.50;;
23702;SDS011;12030;50.376;8.762;2023-07-29T06:42:07;10.30;;;9.40;;
23702;SDS011;12030;50.376;8.762;2023-07-29T06:44:33;10.40;;;9.60;;
23702;SDS011;12030;50.376;8.762;2023-07-29T06:46:58;10.67;;;9.57;;
23702;SDS011;12030;50.376;8.762;2023-07-29T06:49:24;12.10;;;10.23;;
23702;SDS011;12030;50.376;8.762;2023-07-29T06:51:49;12.13;;;10.90;;
23702;SDS011;12030;50.376;8.762;2023-07-29T06:54:16;11.83;;;10.63;;
23702;SDS011;12030;50.376;8.762;2023-07-29T06:56:42;11.57;;;10.57;;
23702;SDS011;12030;50.376;8.762;2023-07-29T06:59:07;11.30;;;10.27;;
23702;SDS011;12030;50.376;8.762;2023-07-29T07:01:33;10.90;;;9.90;;
23702;SDS011;12030;50.376;8.762;2023-07-29T07:03:59;11.17;;;10.07;;
23702;SDS011;12030;50.376;8.762;2023-07-29T07:06:24;10.67;;;9.67;;
23702;SDS011;12030;50.376;8.762;2023-07-29T07:08:50;10.80;;;9.60;;
23702;SDS011;12030;50.376;8.762;2023-07-29T07:11:16;11.43;;;10.53;;
23702;SDS011;12030;50.376;8.762;2023-07-29T07:13:43;10.93;;;10.03;;
23702;SDS011;12030;50.376;8.762;2023-07-29T07:16:08;11.50;;;10.60;;
23702;SDS011;12030;50.376;8.762;2023-07-29T07:18:34;11.33;;;10.33;;
23702;SDS011;12030;50.376;8.762;2023-07-29T07:20:59;12.60;;;11.57;;
23702;SDS011;12030;50.376;8.762;2023-07-29T07:23:25;12.33;;;11.13;;
23702;SDS011;12030;50.376;8.762;2023-07-29T07:25:50;10.73;;;9.80;;
23702;SDS011;12030;50.376;8.762;2023-07-29T07:28:16;11.83;;;10.73;;
23702;SDS011;12030;50.376;8.762;2023-07-29T07:30:41;11.07;;;10.07;;
23702;SDS011;12030;50.376;8.762;2023-07-29T07:33:07;10.47;;;9.57;;
23702;SDS011;12030;50.376;8.762;2023-07-29T07:35:33;11.57;;;10.37;;
23702;SDS011;12030;50.376;8.762;2023-07-29T07:37:58;11.40;;;10.30;;
23702;SDS011;12030;50.376;8.762;2023-07-29T07:40:26;9.97;;;9.07;;
23702;SDS011;12030;50.376;8.762;2023-07-29T07:42:52;11.10;;;10.00;;
23702;SDS011;12030;50.376;8.762;2023-07-29T07:45:18;10.97;;;9.97;;
23702;SDS011;12030;50.376;8.762;2023-07-29T07:47:43;9.77;;;8.90;;
23702;SDS011;12030;50.376;8.762;2023-07-29T07:50:09;9.93;;;9.00;;
23702;SDS011;12030;50.376;8.762;2023-07-29T07:52:34;9.30;;;8.50;;
23702;SDS011;12030;50.376;8.762;2023-07-29T07:55:00;9.57;;;8.77;;
23702;SDS011;12030;50.376;8.762;2023-07-29T07:57:26;9.47;;;8.67;;
23702;SDS011;12030;50.376;8.762;2023-07-29T07:59:51;9.30;;;8.50;;
23702;SDS011;12030;50.376;8.762;2023-07-29T08:02:17;9.30;;;8.50;;
23702;SDS011;12030;50.376;8.762;2023-07-29T08:04:43;8.37;;;7.63;;
23702;SDS011;12030;50.376;8.762;2023-07-29T08:07:08;7.53;;;6.83;;
23702;SDS011;12030;50.376;8.762;2023-07-29T08:09:34;8.10;;;7.10;;
23702;SDS011;12030;50.376;8.762;2023-07-29T08:11:59;6.37;;;5.97;;
23702;SDS011;12030;50.376;8.762;2023-07-29T08:14:25;6.83;;;6.17;;
23702;SDS011;12030;50.376;8.762;2023-07-29T08:16:52;6.23;;;5.73;;
23702;SDS011;12030;50.376;8.762;2023-07-29T08:19:18;5.00;;;4.63;;
23702;SDS011;12030;50.376;8.762;2023-07-29T08:21:43;5.07;;;4.67;;
23702;SDS011;12030;50.376;8.762;2023-07-29T08:24:09;6.13;;;5.63;;
23702;SDS011;12030;50.376;8.762;2023-07-29T08:26:34;5.13;;;4.37;;
23702;SDS011;12030;50.376;8.762;2023-07-29T08:29:00;4.43;;;4.07;;
23702;SDS011;12030;50.376;8.762;2023-07-29T08:31:25;5.70;;;3.50;;
23702;SDS011;12030;50.376;8.762;2023-07-29T08:33:51;3.47;;;3.20;;
23702;SDS011;12030;50.376;8.762;2023-07-29T08:36:16;2.97;;;2.77;;
23702;SDS011;12030;50.376;8.762;2023-07-29T08:38:42;2.30;;;2.10;;
23702;SDS011;12030;50.376;8.762;2023-07-29T08:41:13;3.33;;;1.90;;
23702;SDS011;12030;50.376;8.762;2023-07-29T08:43:48;1.90;;;1.80;;
23702;SDS011;12030;50.376;8.762;2023-07-29T08:46:27;1.70;;;1.60;;
23702;SDS011;12030;50.376;8.762;2023-07-29T08:48:54;3.20;;;1.50;;
23702;SDS011;12030;50.376;8.762;2023-07-29T08:51:20;1.50;;;1.40;;
23702;SDS011;12030;50.376;8.762;2023-07-29T08:53:48;1.50;;;1.40;;
23702;SDS011;12030;50.376;8.762;2023-07-29T08:56:14;2.30;;;2.07;;
23702;SDS011;12030;50.376;8.762;2023-07-29T08:58:40;2.00;;;1.80;;
23702;SDS011;12030;50.376;8.762;2023-07-29T09:01:06;1.53;;;1.43;;
23702;SDS011;12030;50.376;8.762;2023-07-29T09:03:32;1.50;;;1.30;;
23702;SDS011;12030;50.376;8.762;2023-07-29T09:05:58;1.70;;;1.17;;
23702;SDS011;12030;50.376;8.762;2023-07-29T09:08:24;1.30;;;1.13;;
23702;SDS011;12030;50.376;8.762;2023-07-29T09:10:53;5.97;;;1.30;;
23702;SDS011;12030;50.376;8.762;2023-07-29T09:13:20;3.93;;;1.30;;
23702;SDS011;12030;50.376;8.762;2023-07-29T09:15:45;3.00;;;1.20;;
23702;SDS011;12030;50.376;8.762;2023-07-29T09:18:12;1.60;;;1.27;;
23702;SDS011;12030;50.376;8.762;2023-07-29T09:20:41;1.53;;;1.23;;
23702;SDS011;12030;50.376;8.762;2023-07-29T09:23:07;1.47;;;1.20;;
23702;SDS011;12030;50.376;8.762;2023-07-29T09:25:37;1.57;;;1.30;;
23702;SDS011;12030;50.376;8.762;2023-07-29T09:28:07;0.87;;;0.87;;
23702;SDS011;12030;50.376;8.762;2023-07-29T09:30:35;1.00;;;0.90;;
23702;SDS011;12030;50.376;8.762;2023-07-29T09:33:02;0.87;;;0.80;;
23702;SDS011;12030;50.376;8.762;2023-07-29T09:35:28;1.07;;;0.97;;
23702;SDS011;12030;50.376;8.762;2023-07-29T09:37:55;2.53;;;1.00;;
23702;SDS011;12030;50.376;8.762;2023-07-29T09:40:20;1.60;;;1.50;;
23702;SDS011;12030;50.376;8.762;2023-07-29T09:42:52;3.40;;;1.33;;
23702;SDS011;12030;50.376;8.762;2023-07-29T09:45:23;2.03;;;1.17;;
23702;SDS011;12030;50.376;8.762;2023-07-29T09:47:49;2.77;;;1.17;;
23702;SDS011;12030;50.376;8.762;2023-07-29T09:50:16;1.50;;;1.00;;
23702;SDS011;12030;50.376;8.762;2023-07-29T09:52:42;2.97;;;1.17;;
23702;SDS011;12030;50.376;8.762;2023-07-29T09:55:09;3.20;;;1.07;;
23702;SDS011;12030;50.376;8.762;2023-07-29T09:57:36;1.10;;;1.00;;
23702;SDS011;12030;50.376;8.762;2023-07-29T10:00:04;1.73;;;1.03;;
23702;SDS011;12030;50.376;8.762;2023-07-29T10:02:35;1.70;;;1.00;;
23702;SDS011;12030;50.376;8.762;2023-07-29T10:05:06;1.60;;;1.10;;
23702;SDS011;12030;50.376;8.762;2023-07-29T10:07:33;1.93;;;0.90;;
23702;SDS011;12030;50.376;8.762;2023-07-29T10:10:06;1.03;;;0.87;;
23702;SDS011;12030;50.376;8.762;2023-07-29T10:12:32;1.43;;;1.00;;
23702;SDS011;12030;50.376;8.762;2023-07-29T10:15:03;1.27;;;0.97;;
23702;SDS011;12030;50.376;8.762;2023-07-29T10:17:30;2.00;;;1.03;;
23702;SDS011;12030;50.376;8.762;2023-07-29T10:20:01;1.30;;;1.00;;
23702;SDS011;12030;50.376;8.762;2023-07-29T10:22:33;1.17;;;0.93;;
23702;SDS011;12030;50.376;8.762;2023-07-29T10:25:10;3.43;;;1.03;;
23702;SDS011;12030;50.376;8.762;2023-07-29T10:27:45;1.47;;;0.90;;
23702;SDS011;12030;50.376;8.762;2023-07-29T10:30:14;1.93;;;0.80;;
23702;SDS011;12030;50.376;8.762;2023-07-29T10:32:41;1.23;;;0.80;;
23702;SDS011;12030;50.376;8.762;2023-07-29T10:35:09;1.77;;;1.10;;
23702;SDS011;12030;50.376;8.762;2023-07-29T10:37:35;2.53;;;1.00;;
23702;SDS011;12030;50.376;8.762;2023-07-29T10:40:03;0.87;;;0.80;;
23702;SDS011;12030;50.376;8.762;2023-07-29T10:42:32;6.30;;;1.07;;
23702;SDS011;12030;50.376;8.762;2023-07-29T10:44:58;1.67;;;0.80;;
23702;SDS011;12030;50.376;8.762;2023-07-29T10:47:24;1.43;;;0.87;;
23702;SDS011;12030;50.376;8.762;2023-07-29T10:49:55;1.07;;;0.97;;
23702;SDS011;12030;50.376;8.762;2023-07-29T10:52:37;0.90;;;0.70;;
23702;SDS011;12030;50.376;8.762;2023-07-29T10:55:22;1.13;;;0.80;;
23702;SDS011;12030;50.376;8.762;2023-07-29T10:57:48;0.87;;;0.80;;
23702;SDS011;12030;50.376;8.762;2023-07-29T11:00:15;1.47;;;0.70;;
23702;SDS011;12030;50.376;8.762;2023-07-29T11:02:40;0.77;;;0.70;;
23702;SDS011;12030;50.376;8.762;2023-07-29T11:05:07;1.53;;;0.80;;
23702;SDS011;12030;50.376;8.762;2023-07-29T11:07:44;2.30;;;1.07;;
23702;SDS011;12030;50.376;8.762;2023-07-29T11:10:11;1.03;;;0.87;;
23702;SDS011;12030;50.376;8.762;2023-07-29T11:15:13;1.47;;;0.97;;
23702;SDS011;12030;50.376;8.762;2023-07-29T11:17:50;3.53;;;0.80;;
23702;SDS011;12030;50.376;8.762;2023-07-29T11:20:17;1.20;;;1.00;;
23702;SDS011;12030;50.376;8.762;2023-07-29T11:22:44;3.40;;;1.37;;
23702;SDS011;12030;50.376;8.762;2023-07-29T11:25:11;6.13;;;1.57;;
23702;SDS011;12030;50.376;8.762;2023-07-29T11:27:38;1.77;;;1.03;;
23702;SDS011;12030;50.376;8.762;2023-07-29T11:30:04;1.40;;;1.10;;
23702;SDS011;12030;50.376;8.762;2023-07-29T11:32:32;1.00;;;0.90;;
23702;SDS011;12030;50.376;8.762;2023-07-29T11:35:01;2.23;;;1.00;;
23702;SDS011;12030;50.376;8.762;2023-07-29T11:37:28;0.87;;;0.87;;
23702;SDS011;12030;50.376;8.762;2023-07-29T11:39:54;1.97;;;1.20;;
23702;SDS011;12030;50.376;8.762;2023-07-29T11:42:19;1.17;;;0.90;;
23702;SDS011;12030;50.376;8.762;2023-07-29T11:44:45;2.13;;;0.87;;
23702;SDS011;12030;50.376;8.762;2023-07-29T11:47:11;1.10;;;0.90;;
23702;SDS011;12030;50.376;8.762;2023-07-29T11:49:40;3.13;;;0.93;;
23702;SDS011;12030;50.376;8.762;2023-07-29T11:52:07;1.60;;;0.83;;
23702;SDS011;12030;50.376;8.762;2023-07-29T11:54:37;2.87;;;1.27;;
23702;SDS011;12030;50.376;8.762;2023-07-29T11:57:07;1.10;;;0.90;;
23702;SDS011;12030;50.376;8.762;2023-07-29T11:59:34;2.07;;;0.80;;
23702;SDS011;12030;50.376;8.762;2023-07-29T12:02:01;3.33;;;0.87;;
23702;SDS011;12030;50.376;8.762;2023-07-29T12:04:30;0.90;;;0.90;;
23702;SDS011;12030;50.376;8.762;2023-07-29T12:06:55;1.40;;;0.90;;
23702;SDS011;12030;50.376;8.762;2023-07-29T12:09:22;1.70;;;1.00;;
23702;SDS011;12030;50.376;8.762;2023-07-29T12:11:48;3.30;;;0.97;;
23702;SDS011;12030;50.376;8.762;2023-07-29T12:14:13;0.87;;;0.80;;
23702;SDS011;12030;50.376;8.762;2023-07-29T12:16:42;1.70;;;0.90;;
23702;SDS011;12030;50.376;8.762;2023-07-29T12:19:08;2.03;;;0.90;;
23702;SDS011;12030;50.376;8.762;2023-07-29T12:21:36;1.67;;;0.90;;
23702;SDS011;12030;50.376;8.762;2023-07-29T12:24:02;2.73;;;1.00;;
23702;SDS011;12030;50.376;8.762;2023-07-29T12:26:29;2.03;;;1.00;;
23702;SDS011;12030;50.376;8.762;2023-07-29T12:28:54;2.33;;;1.10;;
23702;SDS011;12030;50.376;8.762;2023-07-29T12:31:21;1.10;;;1.00;;
23702;SDS011;12030;50.376;8.762;2023-07-29T12:33:55;1.33;;;0.90;;
23702;SDS011;12030;50.376;8.762;2023-07-29T12:36:21;1.77;;;1.00;;
23702;SDS011;12030;50.376;8.762;2023-07-29T12:38:47;2.47;;;1.07;;
23702;SDS011;12030;50.376;8.762;2023-07-29T12:41:12;1.20;;;0.90;;
23702;SDS011;12030;50.376;8.762;2023-07-29T12:43:38;2.57;;;1.00;;
23702;SDS011;12030;50.376;8.762;2023-07-29T12:46:03;2.57;;;1.03;;
23702;SDS011;12030;50.376;8.762;2023-07-29T12:48:29;1.00;;;0.90;;
23702;SDS011;12030;50.376;8.762;2023-07-29T12:50:55;2.07;;;1.10;;
23702;SDS011;12030;50.376;8.762;2023-07-29T12:53:20;2.57;;;0.90;;
23702;SDS011;12030;50.376;8.762;2023-07-29T12:55:45;1.67;;;1.07;;
23702;SDS011;12030;50.376;8.762;2023-07-29T12:58:11;2.10;;;1.10;;
23702;SDS011;12030;50.376;8.762;2023-07-29T13:00:37;1.13;;;0.83;;
23702;SDS011;12030;50.376;8.762;2023-07-29T13:03:03;3.13;;;1.10;;
23702;SDS011;12030;50.376;8.762;2023-07-29T13:05:30;2.40;;;0.83;;
23702;SDS011;12030;50.376;8.762;2023-07-29T13:07:56;1.67;;;0.90;;
23702;SDS011;12030;50.376;8.762;2023-07-29T13:10:21;1.53;;;0.90;;
23702;SDS011;12030;50.376;8.762;2023-07-29T13:12:47;1.70;;;1.10;;
23702;SDS011;12030;50.376;8.762;2023-07-29T13:15:13;3.03;;;1.00;;
23702;SDS011;12030;50.376;8.762;2023-07-29T13:17:39;2.97;;;1.10;;
23702;SDS011;12030;50.376;8.762;2023-07-29T13:20:05;1.13;;;1.03;;
23702;SDS011;12030;50.376;8.762;2023-07-29T13:22:31;2.50;;;1.03;;
23702;SDS011;12030;50.376;8.762;2023-07-29T13:24:56;4.33;;;1.00;;
23702;SDS011;12030;50.376;8.762;2023-07-29T13:27:22;1.80;;;1.00;;
23702;SDS011;12030;50.376;8.762;2023-07-29T13:29:49;3.23;;;1.37;;
23702;SDS011;12030;50.376;8.762;2023-07-29T13:32:14;1.70;;;1.00;;
23702;SDS011;12030;50.376;8.762;2023-07-29T13:34:40;0.97;;;0.90;;
23702;SDS011;12030;50.376;8.762;2023-07-29T13:37:05;2.60;;;1.00;;
23702;SDS011;12030;50.376;8.762;2023-07-29T13:39:31;1.40;;;1.00;;
23702;SDS011;12030;50.376;8.762;2023-07-29T13:41:56;4.57;;;1.20;;
23702;SDS011;12030;50.376;8.762;2023-07-29T13:44:22;1.50;;;1.00;;
23702;SDS011;12030;50.376;8.762;2023-07-29T13:46:47;1.30;;;1.05;;
23702;SDS011;12030;50.376;8.762;2023-07-29T13:49:13;1.20;;;1.00;;
23702;SDS011;12030;50.376;8.762;2023-07-29T13:51:38;1.30;;;1.00;;
23702;SDS011;12030;50.376;8.762;2023-07-29T13:54:04;2.50;;;1.20;;
23702;SDS011;12030;50.376;8.762;2023-07-29T13:56:29;1.47;;;1.00;;
23702;SDS011;12030;50.376;8.762;2023-07-29T13:58:55;1.52;;;1.02;;
23702;SDS011;12030;50.376;8.762;2023-07-29T14:01:21;1.42;;;1.00;;
23702;SDS011;12030;50.376;8.762;2023-07-29T14:03:46;1.35;;;1.10;;
23702;SDS011;12030;50.376;8.762;2023-07-29T14:06:12;1.58;;;1.02;;
23702;SDS011;12030;50.376;8.762;2023-07-29T14:08:37;1.43;;;0.87;;
23702;SDS011;12030;50.376;8.762;2023-07-29T14:11:05;2.00;;;1.30;;
23702;SDS011;12030;50.376;8.762;2023-07-29T14:13:31;1.63;;;1.10;;
23702;SDS011;12030;50.376;8.762;2023-07-29T14:15:56;1.90;;;1.00;;
23702;SDS011;12030;50.376;8.762;2023-07-29T14:18:22;3.37;;;1.17;;
23702;SDS011;12030;50.376;8.762;2023-07-29T14:20:47;2.10;;;1.13;;
23702;SDS011;12030;50.376;8.762;2023-07-29T14:23:14;2.38;;;1.00;;
23702;SDS011;12030;50.376;8.762;2023-07-29T14:25:39;2.35;;;1.10;;
23702;SDS011;12030;50.376;8.762;2023-07-29T14:28:05;1.90;;;1.00;;
23702;SDS011;12030;50.376;8.762;2023-07-29T14:30:30;2.53;;;1.03;;
23702;SDS011;12030;50.376;8.762;2023-07-29T14:32:56;1.20;;;1.03;;
23702;SDS011;12030;50.376;8.762;2023-07-29T14:35:22;2.50;;;0.90;;
23702;SDS011;12030;50.376;8.762;2023-07-29T14:37:47;1.30;;;1.00;;
23702;SDS011;12030;50.376;8.762;2023-07-29T14:40:13;2.43;;;1.00;;
23702;SDS011;12030;50.376;8.762;2023-07-29T14:42:38;1.03;;;0.90;;